Time;durP1;ratioP1;P1;durP2;ratioP2;P2;SDS_P1;SDS_P2;PMS_P1;PMS_P2;Temp;Humidity;BMP_temperature;BMP_pressure;BME280_temperature;BME280_humidity;BME280_pressure;Samples;Min_cycle;Max_cycle;Signal;HPM_P1;HPM_P2
2021/09/20 00:01:25;;;;;;;;;10.00;8.00;;;;;9.18;99.79;99355.00;6750586;19;2752280;-44
2021/09/20 00:03:53;;;;;;;;;11.00;11.00;;;;;9.31;98.92;99365.81;6746569;19;2787668;-44
2021/09/20 00:06:21;;;;;;;;;11.00;9.00;;;;;9.20;98.99;99362.94;6759054;19;2776217;-44
2021/09/20 00:08:52;;;;;;;;;11.14;10.00;;;;;9.25;99.32;99365.34;6805427;19;1814797;-44
2021/09/20 00:11:19;;;;;;;;;11.50;10.00;;;;;9.54;98.25;99379.63;6791732;19;2772059;-45
2021/09/20 00:13:47;;;;;;;;;13.00;10.00;;;;;9.76;97.00;99377.31;6758866;19;2778320;-44
2021/09/20 00:16:15;;;;;;;;;10.50;10.50;;;;;9.72;97.25;99373.13;6757808;19;2788765;-44
2021/09/20 00:18:44;;;;;;;;;14.00;12.40;;;;;9.39;98.29;99373.38;6785416;19;2787696;-44
2021/09/20 00:21:14;;;;;;;;;10.60;10.60;;;;;9.78;97.24;99379.91;6786315;19;2788694;-45
2021/09/20 00:23:43;;;;;;;;;12.00;11.60;;;;;10.06;96.46;99373.66;6789574;19;2785585;-44
2021/09/20 00:26:11;;;;;;;;;12.00;11.00;;;;;10.13;95.15;99377.63;6756865;19;2793948;-44
2021/09/20 00:28:39;;;;;;;;;12.00;9.50;;;;;9.60;96.93;99376.56;6759501;19;2773077;-45
2021/09/20 00:31:06;;;;;;;;;12.50;12.00;;;;;9.33;98.68;99368.41;6758748;19;2791874;-44
2021/09/20 00:33:34;;;;;;;;;10.00;10.00;;;;;9.15;99.79;99362.38;6758769;19;2783501;-44
2021/09/20 00:36:02;;;;;;;;;11.00;11.00;;;;;9.45;98.35;99370.31;6759653;19;2787756;-44
2021/09/20 00:38:32;;;;;;;;;12.00;11.00;;;;;9.13;98.58;99366.94;6785965;19;2786682;-44
2021/09/20 00:40:59;;;;;;;;;10.00;9.00;;;;;8.98;99.33;99374.13;6763586;19;2758507;-45
2021/09/20 00:43:27;;;;;;;;;11.00;10.00;;;;;8.72;100.00;99370.31;6790227;19;2796028;-45
2021/09/20 00:45:54;;;;;;;;;12.50;11.00;;;;;8.70;100.00;99354.31;6759691;19;2784582;-45
2021/09/20 00:48:24;;;;;;;;;16.80;11.40;;;;;8.52;100.00;99356.25;6787060;19;2800175;-44
2021/09/20 00:50:53;;;;;;;;;13.00;12.80;;;;;8.83;98.91;99354.47;6786032;19;2791144;-44
2021/09/20 00:53:21;;;;;;;;;14.50;11.00;;;;;8.85;98.80;99357.06;6757723;19;2791880;-44
2021/09/20 00:55:49;;;;;;;;;10.00;10.00;;;;;8.80;99.25;99357.31;6755734;19;2785685;-45
2021/09/20 00:58:21;;;;;;;;;13.60;10.40;;;;;8.78;98.22;99357.41;6782679;19;2798088;-46
2021/09/20 01:00:50;;;;;;;;;9.25;8.25;;;;;9.00;97.01;99354.31;6781723;19;1808609;-45
2021/09/20 01:03:17;;;;;;;;;12.00;9.00;;;;;8.49;98.23;99351.09;6792998;19;2763738;-45
2021/09/20 01:05:47;;;;;;;;;14.00;10.60;;;;;8.33;99.43;99350.25;6819124;19;2789819;-45
2021/09/20 01:08:15;;;;;;;;;11.00;10.00;;;;;8.65;98.75;99344.84;6755963;19;2791866;-44
2021/09/20 01:10:42;;;;;;;;;11.50;7.50;;;;;8.83;97.79;99353.59;6760323;19;2758494;-44
2021/09/20 01:13:10;;;;;;;;;11.00;9.00;;;;;8.89;97.77;99354.09;6788899;19;2755366;-44
2021/09/20 01:15:40;;;;;;;;;10.60;9.80;;;;;8.88;98.57;99347.03;6787253;19;2783523;-45
2021/09/20 01:18:07;;;;;;;;;12.50;11.00;;;;;8.66;97.72;99341.22;6748182;19;2787796;-45
2021/09/20 01:20:35;;;;;;;;;11.00;11.00;;;;;8.46;100.00;99343.25;6751552;19;2793950;-45
2021/09/20 01:23:04;;;;;;;;;10.00;10.00;;;;;8.31;100.00;99341.44;6751638;19;2776193;-47
2021/09/20 01:25:33;;;;;;;;;10.50;10.00;;;;;8.45;100.00;99354.91;6748669;19;2777251;-45
2021/09/20 01:28:03;;;;;;;;;15.00;12.00;;;;;8.74;100.00;99352.31;6749287;19;2794973;-44
2021/09/20 01:30:32;;;;;;;;;14.80;13.60;;;;;8.65;100.00;99355.56;6811226;19;2789747;-44
2021/09/20 01:33:00;;;;;;;;;11.50;11.00;;;;;8.91;98.75;99351.31;6750838;19;2787672;-44
2021/09/20 01:35:30;;;;;;;;;18.00;12.20;;;;;8.37;100.00;99351.75;6781201;19;2795996;-45
2021/09/20 01:38:00;;;;;;;;;18.00;11.00;;;;;8.06;100.00;99347.34;6776617;19;2802365;-44
2021/09/20 01:40:30;;;;;;;;;10.20;8.80;;;;;8.22;100.00;99352.69;6780302;19;2744973;-45
2021/09/20 01:42:59;;;;;;;;;10.40;10.00;;;;;8.69;100.00;99354.41;6814720;19;2777252;-44
2021/09/20 01:45:28;;;;;;;;;11.20;7.40;;;;;8.57;98.46;99353.31;6778556;19;2745005;-43
2021/09/20 01:47:56;;;;;;;;;10.00;10.00;;;;;8.21;99.28;99358.97;6782623;19;2785728;-43
2021/09/20 01:50:24;;;;;;;;;11.00;10.00;;;;;8.62;99.71;99371.78;6750768;19;2764804;-44
2021/09/20 01:52:53;;;;;;;;;13.80;10.40;;;;;8.57;98.80;99364.88;6774039;19;2784565;-44
2021/09/20 01:55:21;;;;;;;;;14.00;11.50;;;;;8.86;97.82;99370.34;6748521;19;2787660;-44
2021/09/20 01:57:48;;;;;;;;;15.50;10.00;;;;;8.60;98.04;99363.00;6748629;19;2788757;-44
2021/09/20 02:00:20;;;;;;;;;11.40;11.00;;;;;8.28;98.50;99352.31;6779882;19;2793949;-45
2021/09/20 02:02:48;;;;;;;;;14.00;10.00;;;;;7.90;100.00;99350.03;6748726;19;2787719;-44
2021/09/20 02:05:16;;;;;;;;;13.00;12.00;;;;;8.21;100.00;99350.94;6744019;19;2781454;-44
2021/09/20 02:07:44;;;;;;;;;15.00;12.33;;;;;8.24;100.00;99345.41;6748036;19;2787735;-44
2021/09/20 02:10:16;;;;;;;;;13.80;12.40;;;;;8.84;98.61;99356.16;6811212;19;2782456;-45
2021/09/20 02:12:46;;;;;;;;;11.20;11.20;;;;;8.86;97.38;99345.38;6778701;19;2787726;-45
2021/09/20 02:15:15;;;;;;;;;11.00;11.00;;;;;8.69;97.53;99341.03;6779138;19;2789786;-45
2021/09/20 02:17:43;;;;;;;;;13.00;12.00;;;;;8.85;97.69;99347.22;6748813;19;2803300;-46
2021/09/20 02:20:13;;;;;;;;;10.67;10.67;;;;;8.60;99.09;99344.25;6746295;19;2787656;-43
2021/09/20 02:22:42;;;;;;;;;13.40;11.80;;;;;8.78;98.99;99351.19;6810157;19;2787652;-43
2021/09/20 02:25:12;;;;;;;;;12.00;12.00;;;;;8.95;97.68;99361.78;6749334;19;2789790;-44
2021/09/20 02:27:41;;;;;;;;;12.00;9.50;;;;;8.88;98.50;99360.41;6781163;19;2766843;-44
2021/09/20 02:30:10;;;;;;;;;13.00;11.00;;;;;8.88;98.69;99360.41;6746240;19;2783533;-45
2021/09/20 02:32:38;;;;;;;;;12.00;12.00;;;;;8.74;99.15;99360.34;6750171;19;2793954;-45
2021/09/20 02:35:07;;;;;;;;;13.50;13.50;;;;;8.67;99.64;99359.00;6746072;19;2808500;-44
2021/09/20 02:37:36;;;;;;;;;15.00;15.00;;;;;8.29;100.00;99356.69;6744453;19;2800184;-44
2021/09/20 02:40:08;;;;;;;;;12.00;11.00;;;;;8.22;100.00;99355.34;6746399;19;2788032;-44
2021/09/20 02:42:37;;;;;;;;;15.33;14.00;;;;;8.13;100.00;99354.91;6747264;19;3529297;-45
2021/09/20 02:45:08;;;;;;;;;12.00;11.00;;;;;7.95;100.00;99350.59;6778725;19;2789823;-57
2021/09/20 02:47:36;;;;;;;;;11.50;10.50;;;;;8.31;100.00;99355.66;6747352;19;2784566;-57
2021/09/20 02:50:07;;;;;;;;;12.00;11.00;;;;;8.28;99.76;99346.97;6749607;19;2785609;-56
2021/09/20 02:52:35;;;;;;;;;15.50;11.50;;;;;8.09;100.00;99348.03;6743521;19;2793936;-55
2021/09/20 02:55:08;;;;;;;;;11.20;9.80;;;;;7.80;100.00;99351.47;6778103;19;2773097;-57
2021/09/20 02:57:37;;;;;;;;;13.20;9.80;;;;;7.60;100.00;99348.06;6773827;19;2777280;-55
2021/09/20 03:00:11;;;;;;;;;14.80;10.20;;;;;7.54;100.00;99345.75;6775960;19;2791866;-56
2021/09/20 03:02:41;;;;;;;;;14.20;13.40;;;;;7.55;100.00;99347.47;6779647;19;2797035;-56
2021/09/20 03:05:12;;;;;;;;;10.43;9.14;;;;;7.90;100.00;99344.66;6796798;19;1806533;-57
2021/09/20 03:07:42;;;;;;;;;13.40;12.20;;;;;7.77;100.00;99343.63;6809135;19;2789775;-55
2021/09/20 03:10:10;;;;;;;;;14.00;11.50;;;;;8.26;99.84;99340.84;6745240;19;2787688;-57
2021/09/20 03:12:38;;;;;;;;;12.50;11.00;;;;;8.17;98.67;99347.59;6746475;19;2787712;-56
2021/09/20 03:15:07;;;;;;;;;12.67;12.67;;;;;8.25;98.44;99350.69;6745591;19;2793960;-57
2021/09/20 03:17:36;;;;;;;;;15.00;11.40;;;;;8.07;99.09;99349.06;6809153;19;2793933;-56
2021/09/20 03:20:06;;;;;;;;;15.50;13.00;;;;;8.20;98.79;99344.72;6747085;19;2794049;-56
2021/09/20 03:22:37;;;;;;;;;16.67;13.00;;;;;8.12;98.53;99345.16;6775775;19;2823091;-56
2021/09/20 03:25:07;;;;;;;;;15.00;11.50;;;;;7.79;99.74;99349.72;6777658;19;2786848;-56
2021/09/20 03:27:36;;;;;;;;;15.00;14.33;;;;;7.74;100.00;99346.44;6747260;19;3540763;-53
2021/09/20 03:30:09;;;;;;;;;23.00;15.67;;;;;8.17;100.00;99344.06;6804430;19;2826319;-54
2021/09/20 03:32:40;;;;;;;;;15.67;15.67;;;;;8.03;99.89;99343.03;6805468;19;2827324;-54
2021/09/20 03:35:12;;;;;;;;;15.00;15.00;;;;;8.19;99.97;99352.81;6779416;19;2796086;-53
2021/09/20 03:37:40;;;;;;;;;17.50;16.00;;;;;8.35;99.09;99359.03;6784150;19;2818948;-51
2021/09/20 03:40:09;;;;;;;;;15.50;14.00;;;;;8.73;97.38;99358.63;6743208;19;2791934;-57
2021/09/20 03:42:37;;;;;;;;;14.00;12.00;;;;;8.65;97.32;99363.59;6746212;19;2789767;-56
2021/09/20 03:45:06;;;;;;;;;15.67;15.67;;;;;8.39;98.92;99368.63;6746994;19;3550157;-57
2021/09/20 03:47:34;;;;;;;;;14.00;12.00;;;;;8.70;98.30;99354.31;6778787;19;2788713;-56
2021/09/20 03:50:06;;;;;;;;;15.33;14.67;;;;;8.73;97.99;99353.28;6746946;19;3543911;-54
2021/09/20 03:52:34;;;;;;;;;18.67;14.00;;;;;8.55;98.77;99363.25;6777207;19;3549095;-56
2021/09/20 03:55:04;;;;;;;;;18.33;15.67;;;;;8.53;99.57;99363.34;6777729;19;3564724;-57
2021/09/20 03:57:32;;;;;;;;;16.00;14.50;;;;;8.84;98.45;99358.84;6782814;19;2813708;-56
2021/09/20 04:00:01;;;;;;;;;16.67;16.33;;;;;8.67;98.52;99367.03;6745419;19;3558474;-57
2021/09/20 04:02:29;;;;;;;;;20.50;20.50;;;;;8.43;99.88;99364.00;6781800;19;2829372;-56
2021/09/20 04:04:56;;;;;;;;;22.00;20.50;;;;;8.74;98.98;99355.00;6747850;19;2824284;-56
2021/09/20 04:07:24;;;;;;;;;25.50;21.50;;;;;8.48;99.99;99360.09;6748782;19;2845012;-57
2021/09/20 04:09:52;;;;;;;;;25.00;22.00;;;;;8.44;100.00;99363.03;6743838;19;2489778;-57
2021/09/20 04:12:21;;;;;;;;;44.33;36.00;;;;;8.39;100.00;99362.38;6745112;19;3615779;-55
2021/09/20 04:14:50;;;;;;;;;49.33;38.00;;;;;9.00;98.79;99366.81;6777145;19;2876260;-57
2021/09/20 04:17:20;;;;;;;;;44.67;35.00;;;;;9.00;97.00;99370.38;6778925;19;3610600;-57
2021/09/20 04:19:48;;;;;;;;;25.50;24.50;;;;;8.99;97.43;99370.47;6777967;19;2844989;-57
2021/09/20 04:22:16;;;;;;;;;18.00;16.00;;;;;9.05;96.98;99374.59;6751452;19;2809564;-57
2021/09/20 04:24:44;;;;;;;;;16.00;14.67;;;;;9.02;96.51;99376.50;6743190;19;3531387;-55
2021/09/20 04:27:14;;;;;;;;;17.17;17.17;;;;;8.90;96.27;99371.00;6808720;19;2835624;-57
2021/09/20 04:29:42;;;;;;;;;20.00;18.00;;;;;8.98;96.63;99374.13;6781696;19;2830378;-57
2021/09/20 04:32:11;;;;;;;;;17.80;14.00;;;;;8.95;97.21;99376.94;6774785;19;2804405;-56
2021/09/20 04:34:40;;;;;;;;;17.00;17.00;;;;;8.82;97.01;99375.94;6742133;19;3558506;-55
2021/09/20 04:37:07;;;;;;;;;18.00;14.50;;;;;8.92;97.21;99388.69;6781694;19;2808531;-55
2021/09/20 04:39:36;;;;;;;;;21.00;16.00;;;;;8.61;98.84;99391.47;6742456;19;3574180;-57
2021/09/20 04:42:04;;;;;;;;;18.00;15.33;;;;;8.67;99.45;99401.81;6741075;19;3545991;-55
2021/09/20 04:44:32;;;;;;;;;19.00;15.50;;;;;9.29;96.65;99399.88;6782399;19;2815792;-56
2021/09/20 04:46:59;;;;;;;;;16.50;16.00;;;;;9.16;96.19;99401.56;6749343;19;2829373;-57
2021/09/20 04:49:27;;;;;;;;;17.00;15.00;;;;;9.12;96.60;99408.09;6748749;19;2816885;-57
2021/09/20 04:51:54;;;;;;;;;20.50;17.50;;;;;9.44;96.33;99414.16;6753553;19;2831420;-57
2021/09/20 04:54:22;;;;;;;;;15.00;15.00;;;;;9.66;94.58;99425.31;6751584;19;2805368;-56
2021/09/20 04:56:50;;;;;;;;;17.00;16.00;;;;;9.64;94.35;99431.72;6753090;19;2824139;-57
2021/09/20 04:59:17;;;;;;;;;19.50;18.00;;;;;9.57;95.21;99419.63;6755130;19;2818953;-56
2021/09/20 05:01:45;;;;;;;;;17.00;16.50;;;;;9.73;93.63;99435.63;6754836;19;2830386;-56
2021/09/20 05:04:14;;;;;;;;;18.00;18.00;;;;;9.61;94.75;99421.16;6752735;19;2829337;-57
2021/09/20 05:06:43;;;;;;;;;20.67;18.67;;;;;9.74;94.59;99432.88;6750716;19;3558482;-57
2021/09/20 05:09:11;;;;;;;;;25.50;22.50;;;;;9.72;94.60;99440.13;6749238;19;2827253;-56
2021/09/20 05:11:40;;;;;;;;;31.50;25.00;;;;;9.74;94.38;99437.34;6748335;19;2847068;-56
2021/09/20 05:14:08;;;;;;;;;26.00;22.00;;;;;9.66;95.34;99451.22;6751996;19;3583505;-56
2021/09/20 05:16:37;;;;;;;;;25.50;23.50;;;;;9.49;96.53;99443.38;6748323;19;2841852;-54
2021/09/20 05:19:05;;;;;;;;;32.50;26.50;;;;;9.89;94.47;99453.34;6747073;19;2857476;-56
2021/09/20 05:21:34;;;;;;;;;23.50;23.00;;;;;10.02;93.77;99448.06;6691281;19;2834594;-57
2021/09/20 05:24:01;;;;;;;;;25.00;22.00;;;;;10.14;93.27;99451.81;6750263;19;2498092;-58
2021/09/20 05:26:30;;;;;;;;;21.50;19.00;;;;;9.43;96.12;99442.78;6749391;19;2831436;-57
2021/09/20 05:28:58;;;;;;;;;28.00;19.50;;;;;9.26;98.55;99448.28;6747220;19;2485632;-58
2021/09/20 05:31:25;;;;;;;;;19.00;17.00;;;;;9.77;96.15;99454.13;6749939;19;2823087;-57
2021/09/20 05:33:53;;;;;;;;;17.00;17.00;;;;;9.72;96.27;99453.53;6752767;19;2498112;-57
2021/09/20 05:36:21;;;;;;;;;21.67;20.00;;;;;9.42;97.65;99449.06;6748633;19;3562668;-54
2021/09/20 05:38:49;;;;;;;;;21.00;18.00;;;;;9.47;97.91;99450.63;6748749;19;2498132;-56
2021/09/20 05:41:17;;;;;;;;;22.00;21.00;;;;;9.52;98.03;99441.34;6750748;19;2836643;-55
2021/09/20 05:43:45;;;;;;;;;26.33;22.33;;;;;10.15;95.20;99447.31;6749983;19;3587663;-56
2021/09/20 05:46:14;;;;;;;;;22.00;19.00;;;;;10.25;94.64;99448.44;6748369;19;2829325;-55
2021/09/20 05:48:42;;;;;;;;;20.50;19.00;;;;;10.20;95.84;99446.03;6754005;19;2824132;-55
2021/09/20 05:51:11;;;;;;;;;23.67;22.00;;;;;10.53;94.32;99447.53;6747670;19;3575180;-57
2021/09/20 05:53:39;;;;;;;;;18.00;18.00;;;;;10.71;92.76;99449.00;6752793;19;2825205;-57
2021/09/20 05:56:06;;;;;;;;;22.50;20.00;;;;;11.01;90.83;99452.47;6747428;19;2498092;-56
2021/09/20 05:58:34;;;;;;;;;24.50;23.50;;;;;11.37;90.29;99451.78;6749542;19;2498096;-54
2021/09/20 06:01:01;;;;;;;;;25.00;22.00;;;;;10.91;90.67;99453.06;6748430;19;2498096;-57
2021/09/20 06:03:30;;;;;;;;;27.00;25.00;;;;;11.06;90.93;99453.88;6744970;19;2549625;-55
2021/09/20 06:05:58;;;;;;;;;21.50;20.00;;;;;11.05;90.05;99454.81;6779969;19;2498131;-57
2021/09/20 06:08:25;;;;;;;;;20.00;16.00;;;;;11.24;88.97;99459.81;6751120;19;2831436;-57
2021/09/20 06:10:54;;;;;;;;;25.50;23.00;;;;;11.41;87.32;99461.34;6746355;19;2835614;-57
2021/09/20 06:13:22;;;;;;;;;25.50;23.50;;;;;11.38;88.13;99458.88;6748563;19;2840787;-55
2021/09/20 06:15:52;;;;;;;;;24.00;22.00;;;;;11.43;87.06;99456.75;6749851;19;2489782;-58
2021/09/20 06:18:21;;;;;;;;;20.50;20.50;;;;;12.33;84.06;99465.66;6748177;19;2832533;-57
2021/09/20 06:20:49;;;;;;;;;23.50;21.50;;;;;11.87;85.65;99466.25;6747913;19;2834593;-55
2021/09/20 06:23:17;;;;;;;;;15.00;14.50;;;;;11.74;85.13;99458.16;6751523;19;2800183;-55
2021/09/20 06:25:45;;;;;;;;;26.50;20.00;;;;;11.72;85.17;99465.47;6746473;19;2839749;-57
2021/09/20 06:28:14;;;;;;;;;22.50;21.50;;;;;11.99;83.98;99467.22;6746527;19;2842874;-57
2021/09/20 06:30:42;;;;;;;;;13.00;13.00;;;;;11.83;84.38;99464.72;6749561;19;2676302;-57
2021/09/20 06:33:10;;;;;;;;;19.50;17.50;;;;;12.13;84.12;99468.91;6749206;19;2489807;-57
2021/09/20 06:35:39;;;;;;;;;24.00;22.00;;;;;12.25;83.44;99474.28;6754011;19;2841884;-57
2021/09/20 06:38:06;;;;;;;;;24.50;21.50;;;;;12.50;81.88;99473.34;6745934;19;2496016;-57
2021/09/20 06:40:34;;;;;;;;;20.50;18.00;;;;;12.49;81.33;99466.25;6749696;19;2498084;-57
2021/09/20 06:43:03;;;;;;;;;20.00;18.50;;;;;12.81;81.03;99476.50;6747898;19;2833500;-56
2021/09/20 06:45:31;;;;;;;;;18.50;15.00;;;;;12.83;80.22;99476.41;6745848;19;2810619;-57
2021/09/20 06:48:01;;;;;;;;;23.00;23.00;;;;;12.01;81.33;99476.06;6744247;19;2847140;-56
2021/09/20 06:50:30;;;;;;;;;20.50;18.50;;;;;12.01;82.82;99476.91;6748182;19;2835618;-55
2021/09/20 06:52:57;;;;;;;;;18.00;18.00;;;;;12.20;82.13;99486.38;6748435;19;2481434;-57
2021/09/20 06:55:26;;;;;;;;;19.33;18.67;;;;;12.54;81.09;99482.09;6747227;19;3564728;-57
2021/09/20 06:57:59;;;;;;;;;19.00;18.00;;;;;12.22;82.03;99489.81;6745491;19;2498096;-58
2021/09/20 07:00:30;;;;;;;;;20.50;17.00;;;;;12.19;82.41;99501.66;6743200;19;2825166;-57
2021/09/20 07:02:58;;;;;;;;;21.50;18.00;;;;;11.96;83.05;99495.22;6744560;19;2826240;-57
2021/09/20 07:05:27;;;;;;;;;18.50;18.50;;;;;12.12;82.72;99500.38;6742584;19;2832454;-57
2021/09/20 07:07:55;;;;;;;;;20.00;19.00;;;;;12.73;80.69;99506.69;6746924;19;2485597;-57
2021/09/20 07:10:24;;;;;;;;;19.33;18.00;;;;;12.49;81.14;99514.72;6743671;19;3563682;-57
2021/09/20 07:12:52;;;;;;;;;28.00;23.00;;;;;12.64;80.57;99520.84;6745690;19;2674174;-56
2021/09/20 07:15:21;;;;;;;;;23.50;19.50;;;;;12.57;80.36;99518.72;6774490;19;2832517;-57
2021/09/20 07:17:48;;;;;;;;;17.00;14.00;;;;;12.84;79.61;99523.91;6748486;19;2498124;-55
2021/09/20 07:20:17;;;;;;;;;19.50;19.00;;;;;12.74;79.85;99527.28;6745217;19;2833507;-57
2021/09/20 07:22:47;;;;;;;;;26.00;18.67;;;;;12.32;80.80;99527.69;6744425;19;3582428;-56
2021/09/20 07:25:14;;;;;;;;;17.50;16.50;;;;;12.81;79.38;99533.06;6778935;19;2498084;-57
2021/09/20 07:27:42;;;;;;;;;19.00;17.00;;;;;12.88;79.12;99530.81;6746352;19;2493938;-57
2021/09/20 07:30:17;;;;;;;;;19.00;19.00;;;;;12.68;78.84;99540.34;6744906;19;2831456;-57
2021/09/20 07:32:51;;;;;;;;;22.00;20.50;;;;;13.03;78.86;99540.44;6744123;19;2833499;-55
2021/09/20 07:35:20;;;;;;;;;21.50;21.50;;;;;12.81;78.86;99549.25;6744291;19;2842921;-57
2021/09/20 07:37:55;;;;;;;;;21.00;20.00;;;;;12.72;78.95;99544.53;6743417;19;2824160;-55
2021/09/20 07:40:27;;;;;;;;;22.50;20.00;;;;;12.77;79.08;99550.47;6744310;19;2841888;-57
2021/09/20 07:42:58;;;;;;;;;17.00;15.50;;;;;13.10;77.73;99557.88;6745665;19;2498104;-58
2021/09/20 07:45:27;;;;;;;;;19.50;18.00;;;;;13.09;78.44;99561.56;6745515;19;2833507;-56
2021/09/20 07:47:56;;;;;;;;;23.00;20.50;;;;;13.18;76.20;99560.84;6743223;19;2833495;-56
2021/09/20 07:50:25;;;;;;;;;17.67;16.67;;;;;13.69;75.74;99565.19;6743204;19;3566800;-55
2021/09/20 07:52:54;;;;;;;;;18.00;18.00;;;;;13.52;76.04;99562.91;6741893;19;2833543;-57
2021/09/20 07:55:22;;;;;;;;;21.00;20.00;;;;;12.88;77.86;99566.69;6743788;19;2841832;-58
2021/09/20 07:57:53;;;;;;;;;22.50;18.00;;;;;13.05;77.23;99564.59;6742840;19;2835586;-56
2021/09/20 08:00:22;;;;;;;;;20.00;19.00;;;;;13.39;76.97;99574.59;6742252;19;2835630;-56
2021/09/20 08:02:50;;;;;;;;;22.00;22.00;;;;;13.65;75.21;99571.78;6743594;19;2839796;-57
2021/09/20 08:05:19;;;;;;;;;23.50;20.00;;;;;13.89;73.94;99570.88;6743768;19;2838739;-57
2021/09/20 08:07:47;;;;;;;;;22.00;20.50;;;;;13.30;75.93;99574.47;6741799;19;2838724;-57
2021/09/20 08:10:15;;;;;;;;;19.00;17.50;;;;;13.35;75.94;99577.66;6744972;19;2481465;-56
2021/09/20 08:12:43;;;;;;;;;17.00;17.00;;;;;13.33;75.94;99580.47;6744558;19;2498175;-57
2021/09/20 08:15:12;;;;;;;;;19.00;18.00;;;;;13.66;75.54;99576.19;6746341;19;2837706;-57
2021/09/20 08:17:41;;;;;;;;;22.50;20.00;;;;;13.88;73.72;99577.28;6744098;19;2831494;-57
2021/09/20 08:20:12;;;;;;;;;20.67;19.00;;;;;13.33;75.27;99580.47;6742497;19;3568923;-57
2021/09/20 08:22:49;;;;;;;;;19.00;18.00;;;;;13.79;74.08;99595.00;6743214;19;2833515;-58
2021/09/20 08:25:19;;;;;;;;;18.25;17.00;;;;;13.69;74.69;99594.88;6595486;19;7509075;-58
2021/09/20 08:27:49;;;;;;;;;17.50;16.00;;;;;13.24;75.49;99596.44;6696513;19;2498104;-57
2021/09/20 08:30:20;;;;;;;;;20.00;20.00;;;;;13.38;75.77;99596.31;6753636;19;2825166;-54
2021/09/20 08:32:48;;;;;;;;;18.50;16.50;;;;;13.29;74.22;99599.69;6793122;19;2827241;-58
2021/09/20 08:35:16;;;;;;;;;19.00;19.00;;;;;13.71;74.22;99600.97;6751893;19;2496001;-56
2021/09/20 08:37:45;;;;;;;;;16.50;14.50;;;;;13.53;74.63;99605.06;6753740;19;2498199;-56
2021/09/20 08:40:15;;;;;;;;;18.50;18.50;;;;;13.80;74.06;99605.69;6755266;19;2489780;-56
2021/09/20 08:42:49;;;;;;;;;24.00;23.00;;;;;13.72;73.70;99601.88;6755006;19;2485585;-56
2021/09/20 08:45:19;;;;;;;;;15.50;15.50;;;;;14.02;72.33;99610.28;6752544;19;2821000;-57
2021/09/20 08:47:50;;;;;;;;;20.00;16.00;;;;;14.10;71.25;99600.75;6751669;19;2498080;-58
2021/09/20 08:50:28;;;;;;;;;18.00;17.00;;;;;13.91;72.20;99606.72;6751899;19;2829348;-57
2021/09/20 08:52:56;;;;;;;;;15.00;15.00;;;;;14.25;71.80;99610.38;6755466;19;2498100;-57
2021/09/20 08:55:26;;;;;;;;;20.00;18.67;;;;;14.28;71.35;99602.88;6752504;19;3575182;-57
2021/09/20 08:57:55;;;;;;;;;18.50;16.00;;;;;13.73;72.84;99609.84;6757299;19;2496001;-57
2021/09/20 09:00:24;;;;;;;;;18.50;17.50;;;;;13.21;75.08;99607.44;6783769;19;2815919;-58
2021/09/20 09:02:52;;;;;;;;;20.00;17.50;;;;;13.24;74.06;99613.47;6756229;19;2834584;-58
2021/09/20 09:05:26;;;;;;;;;20.33;16.33;;;;;13.59;73.15;99618.97;6751654;19;3566851;-56
2021/09/20 09:07:56;;;;;;;;;13.00;13.00;;;;;13.93;72.27;99621.81;6734865;19;2796020;-58
2021/09/20 09:10:27;;;;;;;;;23.00;17.50;;;;;13.90;71.62;99622.06;6751911;19;2498088;-58
2021/09/20 09:12:56;;;;;;;;;17.50;16.50;;;;;13.56;72.84;99623.72;6753221;19;2485592;-58
2021/09/20 09:15:26;;;;;;;;;18.00;13.33;;;;;13.02;74.70;99626.81;6751640;19;3519915;-58
2021/09/20 09:17:57;;;;;;;;;22.00;18.00;;;;;13.30;74.19;99628.38;6783096;19;2830367;-57
2021/09/20 09:20:29;;;;;;;;;21.50;21.50;;;;;13.26;74.26;99625.03;6750236;19;2835950;-57
2021/09/20 09:23:08;;;;;;;;;20.50;19.00;;;;;13.87;71.71;99632.22;6762979;19;2835587;-58
2021/09/20 09:25:45;;;;;;;;;18.50;17.50;;;;;13.92;70.83;99636.28;6751287;19;2835594;-58
2021/09/20 09:28:16;;;;;;;;;19.00;19.00;;;;;13.72;72.19;99634.25;6749067;19;2835579;-57
2021/09/20 09:31:04;;;;;;;;;20.00;18.00;;;;;13.94;71.26;99636.16;6750936;19;2839785;-58
2021/09/20 09:33:41;;;;;;;;;24.00;20.00;;;;;14.07;70.13;99638.78;6755478;19;2839780;-57
2021/09/20 09:36:13;;;;;;;;;19.00;17.00;;;;;13.75;71.79;99634.88;6752615;19;2489790;-58
2021/09/20 09:39:02;;;;;;;;;17.00;15.50;;;;;13.90;71.13;99627.47;6746435;19;2498119;-57
2021/09/20 09:41:49;;;;;;;;;19.33;15.00;;;;;13.99;71.53;99631.28;6752166;19;3546006;-58
2021/09/20 09:44:21;;;;;;;;;20.67;17.00;;;;;14.34;70.66;99625.84;6749103;19;3566807;-57
2021/09/20 09:46:49;;;;;;;;;17.67;16.00;;;;;14.37;69.87;99632.84;6750900;19;3561643;-57
2021/09/20 09:49:23;;;;;;;;;17.67;17.67;;;;;14.20;69.27;99629.63;6754648;19;3561587;-57
2021/09/20 09:52:20;;;;;;;;;14.50;14.50;;;;;14.71;67.67;99623.81;6754082;19;2485652;-58
2021/09/20 09:54:48;;;;;;;;;14.00;13.50;;;;;14.79;67.49;99625.06;6755019;19;2799122;-57
2021/09/20 09:57:22;;;;;;;;;16.00;16.00;;;;;14.39;69.24;99625.47;6751596;19;2481418;-57
2021/09/20 10:00:18;;;;;;;;;14.50;14.50;;;;;14.83;67.40;99631.94;6758011;19;2798495;-57
2021/09/20 10:02:50;;;;;;;;;16.00;14.50;;;;;14.82;66.83;99624.81;6748083;19;3408473;-58
2021/09/20 10:05:23;;;;;;;;;16.00;15.67;;;;;15.08;66.82;99628.97;6781293;19;3552364;-58
2021/09/20 10:07:54;;;;;;;;;17.00;12.67;;;;;14.92;66.92;99625.78;6781719;19;3553432;-58
2021/09/20 10:10:30;;;;;;;;;17.00;16.00;;;;;14.89;67.00;99626.91;6749905;19;3566993;-58
2021/09/20 10:13:04;;;;;;;;;14.00;12.00;;;;;15.09;66.98;99630.69;6752123;19;2671440;-57
2021/09/20 10:15:32;;;;;;;;;16.67;14.00;;;;;15.14;67.20;99625.78;6749323;19;3535578;-53
2021/09/20 10:18:00;;;;;;;;;14.50;13.50;;;;;14.85;66.77;99624.56;6755917;19;2493993;-58
2021/09/20 10:20:29;;;;;;;;;14.00;14.00;;;;;14.79;68.19;99619.66;6754308;19;2498088;-57
2021/09/20 10:22:58;;;;;;;;;15.50;14.50;;;;;15.03;67.71;99633.88;6751205;19;2483513;-56
2021/09/20 10:25:29;;;;;;;;;13.00;13.00;;;;;15.31;68.07;99631.66;6758181;19;2787671;-57
2021/09/20 10:27:58;;;;;;;;;15.33;12.00;;;;;15.41;67.39;99627.19;6748988;19;3516812;-58
2021/09/20 10:30:32;;;;;;;;;17.00;16.00;;;;;15.31;67.66;99626.25;6787695;19;2833530;-58
2021/09/20 10:33:11;;;;;;;;;17.50;15.50;;;;;15.65;67.12;99631.56;6753639;19;2822085;-57
2021/09/20 10:35:53;;;;;;;;;16.00;14.67;;;;;15.52;67.45;99626.31;6748807;19;3543915;-57
2021/09/20 10:38:21;;;;;;;;;14.00;13.33;;;;;15.90;65.92;99625.81;6748524;19;3528303;-58
2021/09/20 10:41:10;;;;;;;;;14.33;12.67;;;;;15.68;67.36;99624.03;6783908;19;3527296;-58
2021/09/20 10:43:42;;;;;;;;;14.00;14.00;;;;;16.04;65.54;99623.81;6780203;19;3517839;-58
2021/09/20 10:46:35;;;;;;;;;19.50;17.00;;;;;15.56;68.16;99615.09;6784109;19;2485625;-58
2021/09/20 10:49:18;;;;;;;;;17.33;17.00;;;;;15.80;68.13;99622.19;6746332;19;3553271;-59
2021/09/20 10:52:00;;;;;;;;;11.00;11.00;;;;;16.28;67.33;99627.13;6781340;19;2794975;-52
2021/09/20 10:54:28;;;;;;;;;16.00;13.33;;;;;15.73;68.23;99626.41;6779705;19;3545967;-59
2021/09/20 10:57:17;;;;;;;;;15.67;15.67;;;;;15.95;66.78;99623.56;6748921;19;3540759;-59
2021/09/20 10:59:46;;;;;;;;;13.50;12.50;;;;;16.26;66.72;99623.66;6789877;19;2791897;-59
2021/09/20 11:02:18;;;;;;;;;13.00;12.00;;;;;16.80;64.93;99617.16;6757117;19;2788833;-58
2021/09/20 11:04:48;;;;;;;;;8.80;8.80;;;;;16.36;62.66;99623.75;6780698;19;2739745;-58
2021/09/20 11:07:21;;;;;;;;;10.60;9.40;;;;;16.60;62.02;99609.91;6810922;19;2765778;-58
2021/09/20 11:10:07;;;;;;;;;12.40;11.00;;;;;16.71;62.50;99617.94;6779425;19;2786713;-58
2021/09/20 11:13:05;;;;;;;;;10.00;8.60;;;;;16.62;61.83;99621.47;6779292;19;2749137;-59
2021/09/20 11:15:42;;;;;;;;;8.80;8.80;;;;;16.66;62.43;99618.34;6811678;19;2747052;-59
2021/09/20 11:18:30;;;;;;;;;9.00;9.00;;;;;16.26;62.78;99618.25;6785979;19;2743939;-59